Time;durP1;ratioP1;P1;durP2;ratioP2;P2;SDS_P1;SDS_P2;PMS_P1;PMS_P2;Temp;Humidity;BMP_temperature;BMP_pressure;BME280_temperature;BME280_humidity;BME280_pressure;Samples;Min_cycle;Max_cycle;Signal;HPM_P1;HPM_P2
2022/08/24 00:02:14;;;;;;;10.63;7.28;;;;;;;20.08;81.44;101150.61;1682388;84;21132;-78
2022/08/24 00:05:00;;;;;;;9.50;7.35;;;;;;;20.04;81.41;101156.47;1673971;84;21483;-78
2022/08/24 00:07:46;;;;;;;11.88;7.40;;;;;;;20.01;81.43;101155.75;1686520;84;21093;-78
2022/08/24 00:10:31;;;;;;;8.68;7.00;;;;;;;19.98;81.45;101155.44;1639817;85;21103;-78
2022/08/24 00:13:16;;;;;;;10.68;7.53;;;;;;;19.95;81.49;101153.41;1677623;84;21046;-78
2022/08/24 00:16:01;;;;;;;20.25;7.05;;;;;;;19.93;81.54;101156.57;1677460;83;22205;-78
2022/08/24 00:18:47;;;;;;;11.80;7.33;;;;;;;19.91;81.53;101161.03;1686469;84;21064;-78
2022/08/24 00:21:32;;;;;;;14.45;7.40;;;;;;;19.89;81.59;101158.48;1683818;83;21044;-79
2022/08/24 00:24:17;;;;;;;8.75;7.25;;;;;;;19.90;81.63;101154.94;1673940;84;21489;-78
2022/08/24 00:27:03;;;;;;;13.25;7.67;;;;;;;19.91;81.58;101158.41;1678473;84;20954;-78
2022/08/24 00:29:48;;;;;;;9.05;6.92;;;;;;;19.88;81.60;101152.84;1683065;84;21082;-78
2022/08/24 00:32:33;;;;;;;10.55;6.53;;;;;;;19.87;81.58;101159.47;1689520;84;21063;-78
2022/08/24 00:35:19;;;;;;;11.68;7.22;;;;;;;19.83;81.60;101155.68;1685523;84;21092;-78
2022/08/24 00:38:03;;;;;;;12.28;6.50;;;;;;;19.81;81.62;101156.67;1685190;84;21871;-78
2022/08/24 00:40:49;;;;;;;13.48;7.47;;;;;;;19.78;81.63;101162.06;1692840;83;21018;-78
2022/08/24 00:43:34;;;;;;;9.03;7.15;;;;;;;19.76;81.63;101166.06;1692135;84;21506;-78
2022/08/24 00:46:25;;;;;;;7.47;6.87;;;;;;;19.74;81.67;101163.15;1686925;84;21086;-78
2022/08/24 00:49:21;;;;;;;11.60;7.03;;;;;;;19.73;81.75;101158.36;1681270;84;21249;-79
2022/08/24 00:52:18;;;;;;;;;;;;;;;19.72;81.70;101163.67;1690898;84;21078;-78
2022/08/24 00:55:11;;;;;;;8.15;6.85;;;;;;;19.69;81.82;101171.69;1688341;83;20129;-78
2022/08/24 00:58:00;;;;;;;10.70;6.95;;;;;;;19.65;81.72;101168.80;1671621;84;20934;-78
2022/08/24 01:00:53;;;;;;;7.62;7.00;;;;;;;19.63;81.75;101171.95;1677886;84;20902;-78
2022/08/24 01:03:38;;;;;;;13.08;7.08;;;;;;;19.59;81.71;101172.55;1654534;85;20872;-78
2022/08/24 01:06:24;;;;;;;8.28;6.20;;;;;;;19.55;81.76;101172.30;1653244;86;21034;-78
2022/08/24 01:09:09;;;;;;;7.92;6.53;;;;;;;19.52;81.80;101170.27;1654875;86;21057;-78
2022/08/24 01:11:55;;;;;;;10.72;7.72;;;;;;;19.51;81.83;101166.80;1649193;85;21097;-78
2022/08/24 01:14:40;;;;;;;10.20;7.27;;;;;;;19.47;81.83;101160.80;1642240;86;21101;-78
2022/08/24 01:20:30;;;;;;;9.78;6.85;;;;;;;19.39;81.84;101167.30;1686176;84;21329;-79
2022/08/24 01:23:41;;;;;;;8.18;7.37;;;;;;;19.37;81.95;101166.52;1679558;83;21076;-78
2022/08/24 01:26:34;;;;;;;10.82;6.62;;;;;;;19.35;81.93;101160.48;1675303;84;21079;-78
2022/08/24 01:29:25;;;;;;;11.75;7.05;;;;;;;19.33;81.91;101168.87;1677633;84;21099;-78
2022/08/24 01:32:10;;;;;;;8.38;6.78;;;;;;;19.31;81.94;101175.50;1689228;84;21683;-78
2022/08/24 01:34:57;;;;;;;8.30;7.53;;;;;;;19.30;81.89;101178.19;1643964;85;21077;-78
2022/08/24 01:37:42;;;;;;;9.58;6.90;;;;;;;19.27;81.95;101177.86;1637351;86;20967;-78
2022/08/24 01:40:32;;;;;;;8.80;7.12;;;;;;;19.25;81.93;101177.53;1654673;85;20941;-78
2022/08/24 01:43:17;;;;;;;8.38;7.53;;;;;;;19.23;81.94;101178.94;1687339;83;21389;-78
2022/08/24 01:46:02;;;;;;;9.48;7.60;;;;;;;19.22;82.01;101185.56;1687245;83;21040;-78
2022/08/24 01:48:47;;;;;;;10.13;7.67;;;;;;;19.21;81.98;101175.98;1690226;83;21592;-78
2022/08/24 01:51:34;;;;;;;9.28;7.03;;;;;;;19.18;81.97;101172.58;1679677;83;21087;-78
2022/08/24 01:54:18;;;;;;;;;;;;;;;19.17;81.99;101173.50;1689390;84;21044;-78
2022/08/24 01:57:04;;;;;;;9.05;6.42;;;;;;;19.16;82.13;101166.55;1671787;83;20204;-78
2022/08/24 01:59:49;;;;;;;10.93;7.00;;;;;;;19.16;82.03;101166.55;1684857;83;21691;-78
2022/08/24 02:02:35;;;;;;;8.23;6.33;;;;;;;19.15;81.99;101166.61;1655939;85;21182;-78
2022/08/24 02:05:21;;;;;;;6.85;6.08;;;;;;;19.13;82.01;101160.58;1666987;84;21084;-78
2022/08/24 02:08:06;;;;;;;9.15;6.55;;;;;;;19.12;82.00;101166.75;1677806;83;21067;-78
2022/08/24 02:10:51;;;;;;;7.03;6.42;;;;;;;19.07;82.01;101165.63;1684868;83;21055;-78
2022/08/24 02:13:39;;;;;;;7.55;6.90;;;;;;;19.02;81.97;101158.87;1638992;86;21046;-78
2022/08/24 02:16:26;;;;;;;9.93;6.00;;;;;;;18.98;82.04;101159.46;1646360;86;21013;-78
2022/08/24 02:19:11;;;;;;;6.60;4.97;;;;;;;18.94;81.95;101157.88;1635978;87;21542;-78
2022/08/24 02:21:56;;;;;;;5.87;5.37;;;;;;;18.89;82.04;101148.05;1678123;85;21123;-78
2022/08/24 02:24:41;;;;;;;5.92;5.40;;;;;;;18.88;82.04;101149.42;1683419;83;21080;-78
2022/08/24 02:27:26;;;;;;;8.15;5.28;;;;;;;18.84;82.05;101153.48;1620053;84;5000990;-78
2022/08/24 02:30:12;;;;;;;8.65;5.70;;;;;;;18.82;82.06;101155.31;1678189;84;21429;-79
2022/08/24 02:32:59;;;;;;;6.85;6.25;;;;;;;18.79;82.03;101156.75;1669119;85;20996;-78
2022/08/24 02:35:44;;;;;;;7.00;6.37;;;;;;;18.76;82.01;101160.81;1684048;85;21083;-78
2022/08/24 02:38:29;;;;;;;9.40;6.15;;;;;;;18.73;82.03;101161.39;1662428;85;21068;-78
2022/08/24 02:41:14;;;;;;;8.00;7.20;;;;;;;18.69;82.00;101162.47;1679156;85;21084;-78
2022/08/24 02:43:59;;;;;;;8.68;7.20;;;;;;;18.67;82.01;101168.22;1671218;85;21064;-78
2022/08/24 02:46:44;;;;;;;10.35;6.53;;;;;;;18.63;82.04;101162.71;1671483;85;21079;-78
2022/08/24 02:49:29;;;;;;;12.43;6.65;;;;;;;18.61;82.07;101164.54;1666913;85;21036;-78
2022/08/24 02:52:15;;;;;;;7.65;6.90;;;;;;;18.59;82.10;101169.80;1683418;84;21045;-78
2022/08/24 02:54:59;;;;;;;9.43;5.70;;;;;;;18.57;82.04;101169.02;1673945;85;21475;-78
2022/08/24 02:57:46;;;;;;;16.93;6.45;;;;;;;18.54;82.01;101175.69;1679210;84;21702;-78
2022/08/24 03:00:31;;;;;;;;;;;;;;;18.49;82.02;101179.80;1676079;85;21322;-78
2022/08/24 03:03:17;;;;;;;10.85;6.30;;;;;;;18.47;82.13;101184.70;1683156;85;20579;-78
2022/08/24 03:06:02;;;;;;;7.42;6.20;;;;;;;18.42;82.01;101191.42;1678826;85;22146;-78
2022/08/24 03:08:47;;;;;;;7.33;6.62;;;;;;;18.38;82.01;101187.67;1674997;85;21505;-78
2022/08/24 03:11:32;;;;;;;7.55;6.75;;;;;;;18.38;82.10;101191.61;1632979;85;21105;-78
2022/08/24 03:14:17;;;;;;;7.55;6.25;;;;;;;18.35;82.09;101188.65;1640229;85;21112;-78
2022/08/24 03:17:03;;;;;;;8.03;6.42;;;;;;;18.33;82.06;101194.86;1638666;87;21144;-78
2022/08/24 03:19:48;;;;;;;9.50;6.28;;;;;;;18.29;82.04;101201.98;1642303;85;21525;-78
2022/08/24 03:22:33;;;;;;;11.12;6.62;;;;;;;18.27;82.05;101205.11;1639396;87;21050;-78
2022/08/24 03:25:20;;;;;;;9.05;6.80;;;;;;;18.24;82.09;101205.23;1676592;84;21140;-78
2022/08/24 03:28:05;;;;;;;16.73;8.40;;;;;;;18.23;82.12;101210.52;1662729;84;21695;-78
2022/08/24 03:30:50;;;;;;;10.58;7.33;;;;;;;18.20;82.17;101212.34;1681124;83;21091;-78
2022/08/24 03:33:35;;;;;;;8.35;7.55;;;;;;;18.22;82.20;101210.98;1663672;85;21088;-78
2022/08/24 03:36:20;;;;;;;8.98;8.08;;;;;;;18.24;82.21;101217.46;1677752;84;21089;-79
2022/08/24 03:39:06;;;;;;;10.28;7.62;;;;;;;18.24;82.22;101213.53;1682305;84;21080;-78
2022/08/24 03:41:51;;;;;;;9.00;7.30;;;;;;;18.22;82.23;101214.05;1670073;85;21131;-78
2022/08/24 03:44:36;;;;;;;10.43;7.58;;;;;;;18.23;82.22;101220.53;1680488;85;21029;-78
2022/08/24 03:47:21;;;;;;;10.35;8.50;;;;;;;18.23;82.23;101222.30;1680530;85;21085;-78
2022/08/24 03:50:08;;;;;;;8.28;7.47;;;;;;;18.22;82.19;101221.45;1668967;85;21080;-78
2022/08/24 03:52:53;;;;;;;6.72;6.10;;;;;;;18.19;82.19;101230.76;1670100;85;21490;-78
2022/08/24 03:55:38;;;;;;;37.83;8.65;;;;;;;18.19;82.31;101230.76;1679907;84;20924;-78
2022/08/24 03:58:23;;;;;;;9.23;7.58;;;;;;;18.18;82.24;101229.05;1668601;85;21008;-78
2022/08/24 04:01:10;;;;;;;12.03;8.70;;;;;;;18.17;82.38;101233.89;1670818;85;21044;-78
2022/08/24 04:03:56;;;;;;;8.78;7.55;;;;;;;18.18;82.37;101240.37;1682617;85;21040;-78
2022/08/24 04:06:43;;;;;;;10.95;8.88;;;;;;;18.19;82.39;101235.99;1663830;85;21087;-78
2022/08/24 04:09:27;;;;;;;8.95;8.25;;;;;;;18.20;82.44;101238.97;1672990;85;20996;-78
2022/08/24 04:12:12;;;;;;;9.75;8.80;;;;;;;18.24;82.46;101242.33;1678283;83;21079;-78
2022/08/24 04:14:58;;;;;;;9.20;8.28;;;;;;;18.26;82.48;101239.20;1686414;84;21047;-78
2022/08/24 04:17:43;;;;;;;8.95;8.23;;;;;;;18.27;82.46;101249.62;1679279;84;21507;-78
2022/08/24 04:20:28;;;;;;;8.53;7.70;;;;;;;18.30;82.47;101241.65;1663341;84;21143;-78
2022/08/24 04:23:14;;;;;;;9.73;8.40;;;;;;;18.32;82.51;101238.52;1668776;84;21536;-78
2022/08/24 04:26:04;;;;;;;8.10;7.37;;;;;;;18.35;82.52;101238.85;1685036;84;20997;-78
2022/08/24 04:28:50;;;;;;;14.35;8.93;;;;;;;18.39;82.57;101236.52;1674737;83;21020;-78
2022/08/24 04:31:38;;;;;;;8.95;8.15;;;;;;;18.40;82.49;101237.77;1687218;83;21500;-78
2022/08/24 04:34:23;;;;;;;21.82;9.88;;;;;;;18.41;82.58;101238.16;1685991;83;21036;-79
2022/08/24 04:37:08;;;;;;;46.77;10.85;;;;;;;18.45;82.62;101241.06;1684068;84;21105;-79
2022/08/24 04:39:53;;;;;;;17.20;10.75;;;;;;;18.46;82.65;101243.23;1674128;84;21092;-78
2022/08/24 04:42:38;;;;;;;19.05;10.78;;;;;;;18.49;82.75;101246.58;1682048;83;21132;-78
2022/08/24 04:45:24;;;;;;;14.38;11.12;;;;;;;18.56;82.78;101242.41;1656601;85;21526;-78
2022/08/24 04:48:10;;;;;;;29.05;11.70;;;;;;;18.61;82.79;101249.22;1651317;85;21371;-78
2022/08/24 04:50:54;;;;;;;21.95;12.53;;;;;;;18.66;82.82;101255.58;1643173;85;20969;-78
2022/08/24 04:53:40;;;;;;;14.30;11.93;;;;;;;18.70;82.87;101259.33;1644411;86;21010;-78
2022/08/24 04:56:26;;;;;;;20.82;12.68;;;;;;;18.75;82.84;101261.73;1641160;86;21564;-78
2022/08/24 04:59:11;;;;;;;29.15;13.13;;;;;;;18.80;82.89;101262.41;1654110;86;20958;-78
2022/08/24 05:01:56;;;;;;;18.00;12.73;;;;;;;18.84;82.92;101269.23;1631166;86;20958;-78
2022/08/24 05:04:40;;;;;;;18.60;12.85;;;;;;;18.89;82.94;101267.75;1644791;86;20958;-78
2022/08/24 05:07:25;;;;;;;19.48;11.53;;;;;;;18.93;82.99;101270.19;1674777;83;20998;-78
2022/08/24 05:10:10;;;;;;;27.42;13.50;;;;;;;18.97;83.00;101274.39;1682964;82;21236;-78
2022/08/24 05:12:55;;;;;;;23.55;12.90;;;;;;;18.96;82.97;101279.23;1683439;83;20992;-78
2022/08/24 05:15:44;;;;;;;25.68;14.28;;;;;;;19.00;83.11;101277.34;1647392;85;21053;-78
2022/08/24 05:18:31;;;;;;;29.07;13.85;;;;;;;19.06;83.11;101280.57;1648517;86;20990;-78
2022/08/24 05:21:19;;;;;;;16.93;13.43;;;;;;;19.11;83.16;101276.00;1658843;85;20984;-78
2022/08/24 05:24:04;;;;;;;26.27;14.58;;;;;;;19.18;83.20;101276.60;1648144;85;20986;-78
2022/08/24 05:26:51;;;;;;;21.15;16.27;;;;;;;19.23;83.28;101270.71;1625704;86;21545;-78
2022/08/24 05:29:36;;;;;;;47.62;16.93;;;;;;;19.32;83.33;101270.30;1678443;84;21389;-78
2022/08/24 05:32:21;;;;;;;51.85;17.32;;;;;;;19.43;83.38;101268.53;1697007;83;20946;-78
2022/08/24 05:35:07;;;;;;;26.25;16.65;;;;;;;19.51;83.32;101274.34;1649840;84;20994;-78
2022/08/24 05:37:52;;;;;;;27.73;16.32;;;;;;;19.60;83.42;101280.52;1661503;85;20964;-78
2022/08/24 05:40:37;;;;;;;22.10;17.35;;;;;;;19.73;83.47;101277.76;1648005;85;21056;-78
2022/08/24 05:43:23;;;;;;;23.75;17.00;;;;;;;19.84;83.42;101279.89;1649755;85;21129;-78
2022/08/24 05:46:08;;;;;;;20.97;16.07;;;;;;;19.93;83.42;101279.94;1644173;84;21566;-78
2022/08/24 05:48:53;;;;;;;27.58;16.70;;;;;;;20.02;83.45;101281.70;1648166;84;21557;-78
2022/08/24 05:51:41;;;;;;;19.85;15.15;;;;;;;20.09;83.45;101277.88;1630474;86;21430;-78
2022/08/24 05:54:26;;;;;;;22.42;15.75;;;;;;;20.15;83.43;101282.01;1649887;86;21221;-78
2022/08/24 05:57:11;;;;;;;20.43;14.80;;;;;;;20.20;83.40;101279.17;1652328;85;21049;-77
2022/08/24 05:59:57;;;;;;;27.73;15.75;;;;;;;20.25;83.41;101274.56;1649102;86;21093;-78
2022/08/24 06:02:42;;;;;;;27.58;15.28;;;;;;;20.31;83.47;101273.80;1650728;85;21124;-78
2022/08/24 06:05:27;;;;;;;26.70;14.83;;;;;;;20.41;83.57;101279.05;1649708;85;21069;-78
2022/08/24 06:08:12;;;;;;;17.60;15.75;;;;;;;20.52;83.56;101275.92;1651934;85;21096;-78
2022/08/24 06:10:59;;;;;;;27.15;15.13;;;;;;;20.63;83.59;101272.34;1651979;85;21048;-78
2022/08/24 06:13:44;;;;;;;25.65;14.55;;;;;;;20.71;83.50;101273.28;1690045;83;21055;-78
2022/08/24 06:16:30;;;;;;;25.72;16.12;;;;;;;20.77;83.50;101279.11;1696873;83;21071;-78
2022/08/24 06:19:18;;;;;;;35.88;15.53;;;;;;;20.83;83.50;101276.15;1689830;83;21103;-78
2022/08/24 06:22:03;;;;;;;24.47;14.68;;;;;;;20.90;83.54;101275.39;1665756;83;20917;-78
2022/08/24 06:27:51;;;;;;;20.60;12.50;;;;;;;21.04;83.50;101276.89;1692998;83;21071;-78
2022/08/24 06:30:36;;;;;;;22.03;13.57;;;;;;;21.14;83.47;101274.66;1678848;83;21032;-79
2022/08/24 06:33:21;;;;;;;21.02;12.30;;;;;;;21.27;83.58;101276.26;1689807;83;21044;-78
2022/08/24 06:36:07;;;;;;;24.45;11.73;;;;;;;21.43;83.57;101287.22;1683806;83;21494;-78
2022/08/24 06:38:52;;;;;;;24.12;12.13;;;;;;;21.60;83.49;101288.15;1686813;83;21452;-78
2022/08/24 06:41:39;;;;;;;20.35;10.80;;;;;;;21.80;83.50;101294.09;1688288;83;21095;-79
2022/08/24 06:44:24;;;;;;;16.37;10.65;;;;;;;22.07;83.68;101294.44;1692637;83;21028;-79
2022/08/24 06:47:10;;;;;;;18.23;9.30;;;;;;;22.34;83.44;101296.06;1701690;83;21388;-79
2022/08/24 06:50:00;;;;;;;12.82;9.23;;;;;;;22.68;83.30;101294.19;1698490;83;21143;-79
2022/08/24 06:52:45;;;;;;;20.55;9.05;;;;;;;22.80;83.24;101289.59;1661251;84;21085;-79
2022/08/24 06:55:30;;;;;;;18.12;9.45;;;;;;;22.86;83.08;101287.92;1673690;82;21647;-79
2022/08/24 06:58:17;;;;;;;16.87;9.15;;;;;;;22.94;82.85;101294.05;1658852;84;21534;-79
2022/08/24 07:01:12;;;;;;;20.00;8.80;;;;;;;23.06;83.15;101299.95;1664501;84;21343;-79
2022/08/24 07:03:57;;;;;;;14.80;7.60;;;;;;;23.21;83.22;101285.88;1659142;84;21112;-79
2022/08/24 07:06:42;;;;;;;18.35;7.55;;;;;;;24.09;83.39;101302.16;1653984;84;21091;-79
2022/08/24 07:09:31;;;;;;;16.45;7.62;;;;;;;25.56;82.94;101304.08;1666598;83;21064;-79
2022/08/24 07:12:16;;;;;;;14.90;7.30;;;;;;;25.56;82.94;101304.08;1658064;84;20989;-79
2022/08/24 07:15:02;;;;;;;11.53;6.12;;;;;;;26.11;82.31;101300.29;1699714;83;21067;-78
2022/08/24 07:17:47;;;;;;;12.37;5.83;;;;;;;26.83;82.18;101298.64;1685075;83;21078;-78
2022/08/24 07:20:32;;;;;;;18.55;6.25;;;;;;;27.72;82.01;101300.79;1692475;83;21634;-79
2022/08/24 07:23:20;;;;;;;11.40;5.75;;;;;;;28.53;81.38;101307.22;1689406;83;21099;-79
2022/08/24 07:26:12;;;;;;;12.10;6.28;;;;;;;28.89;80.36;101298.91;1694686;83;21600;-79
2022/08/24 07:29:05;;;;;;;14.43;5.72;;;;;;;28.98;80.18;101296.83;1676067;83;21099;-79
2022/08/24 07:31:50;;;;;;;14.28;5.72;;;;;;;28.92;80.58;101295.16;1690343;83;21075;-82
2022/08/24 07:34:36;;;;;;;14.07;5.22;;;;;;;29.17;80.08;101296.61;1658997;84;21128;-77
2022/08/24 07:37:21;;;;;;;;;;;;;;;29.23;79.87;101292.09;1660862;84;21076;-77
2022/08/24 07:40:08;;;;;;;14.98;5.45;;;;;;;29.28;78.74;101287.23;1667410;84;20177;-77
2022/08/24 07:42:54;;;;;;;16.67;5.80;;;;;;;29.21;79.38;101291.37;1636988;86;20941;-78
2022/08/24 07:45:41;;;;;;;15.00;5.55;;;;;;;28.95;79.21;101293.09;1641323;86;20997;-78
2022/08/24 07:48:27;;;;;;;14.83;6.92;;;;;;;28.74;78.95;101298.80;1665226;84;20921;-78
2022/08/24 07:51:15;;;;;;;15.13;5.85;;;;;;;28.42;78.73;101298.77;1656688;84;21613;-78
2022/08/24 07:54:02;;;;;;;13.98;5.28;;;;;;;28.12;78.36;101307.33;1690452;83;21580;-77
2022/08/24 07:56:48;;;;;;;21.48;5.15;;;;;;;27.73;78.18;101300.67;1660094;84;21818;-78
2022/08/24 07:59:34;;;;;;;;;;;;;;;27.80;78.30;101301.05;1651835;84;20997;-78
2022/08/24 08:02:19;;;;;;;15.03;5.90;;;;;;;28.01;77.33;101301.55;1652137;84;20171;-78
2022/08/24 08:05:05;;;;;;;16.82;5.50;;;;;;;28.28;77.69;101307.00;1648875;84;20957;-78
2022/08/24 08:07:51;;;;;;;16.25;5.08;;;;;;;28.53;77.17;101305.41;1649242;84;21450;-78
2022/08/24 08:10:35;;;;;;;12.78;4.55;;;;;;;28.82;76.83;101297.73;1655108;84;20967;-78
2022/08/24 08:13:20;;;;;;;15.43;5.53;;;;;;;29.27;76.61;101300.19;1678553;83;20968;-78
2022/08/24 08:16:06;;;;;;;10.95;4.70;;;;;;;29.61;75.60;101300.89;1673781;83;20905;-78
2022/08/24 08:18:50;;;;;;;21.77;6.60;;;;;;;29.70;75.75;101304.56;1678814;83;20960;-78
2022/08/24 08:24:49;;;;;;;14.15;4.90;;;;;;;30.59;74.63;101308.70;1682465;83;20964;-78
2022/08/24 08:27:35;;;;;;;14.75;4.70;;;;;;;31.22;73.73;101310.50;1677171;83;26896;-78
2022/08/24 08:30:20;;;;;;;9.63;4.80;;;;;;;31.76;73.30;101306.34;1672002;83;26293;-78
2022/08/24 08:33:04;;;;;;;16.15;4.70;;;;;;;32.27;72.29;101306.38;1670877;83;21619;-77
2022/08/24 08:35:52;;;;;;;14.55;5.25;;;;;;;32.61;71.80;101311.97;1671541;83;20917;-77
2022/08/24 08:38:39;;;;;;;14.07;4.75;;;;;;;32.96;71.27;101313.01;1672237;83;21417;-78
2022/08/24 08:42:01;;;;;;;16.40;4.90;;;;;;;33.40;70.83;101310.73;1675633;83;20929;-78
2022/08/24 08:45:15;;;;;;;16.87;4.55;;;;;;;33.46;70.36;101311.95;1671430;83;20959;-78
2022/08/24 08:48:38;;;;;;;12.63;4.30;;;;;;;33.97;69.94;101316.48;1676219;83;20949;-78
2022/08/24 08:51:40;;;;;;;11.75;4.22;;;;;;;33.80;69.48;101314.70;1671457;83;20965;-78
2022/08/24 08:55:00;;;;;;;15.55;4.65;;;;;;;33.02;69.29;101314.58;1672746;83;20913;-78
2022/08/24 08:58:11;;;;;;;15.90;4.80;;;;;;;32.20;69.28;101328.03;1665796;83;20941;-78
2022/08/24 09:01:13;;;;;;;17.00;4.92;;;;;;;31.45;68.92;101326.25;1680029;83;20948;-78
2022/08/24 09:04:30;;;;;;;17.45;5.00;;;;;;;30.78;68.73;101321.22;1676006;83;21100;-78
2022/08/24 09:07:45;;;;;;;15.78;5.20;;;;;;;30.38;68.49;101320.41;1675192;83;20996;-80
2022/08/24 09:10:53;;;;;;;12.13;5.25;;;;;;;29.98;68.00;101318.06;1671343;83;21214;-78
2022/08/24 09:14:19;;;;;;;13.15;4.72;;;;;;;29.58;67.62;101319.32;1678810;82;20985;-78
2022/08/24 09:17:18;;;;;;;9.95;4.37;;;;;;;29.20;67.44;101317.17;1696020;82;21127;-78
2022/08/24 09:20:41;;;;;;;12.10;4.53;;;;;;;28.95;67.15;101316.20;1699068;82;21131;-77
2022/08/24 09:23:50;;;;;;;12.45;4.28;;;;;;;28.71;66.79;101318.17;1699588;82;21575;-78
2022/08/24 09:26:56;;;;;;;10.98;5.08;;;;;;;28.59;66.61;101325.36;1693519;82;21061;-78
2022/08/24 09:30:05;;;;;;;;;;;;;;;28.43;66.33;101319.56;1676878;82;20970;-78
2022/08/24 09:33:21;;;;;;;25.32;5.12;;;;;;;28.17;65.71;101322.44;1694586;81;20180;-79
2022/08/24 09:36:11;;;;;;;19.62;5.40;;;;;;;27.89;66.00;101314.95;1701644;82;21032;-78
2022/08/24 09:39:07;;;;;;;16.77;5.10;;;;;;;27.73;65.90;101317.10;1664835;84;20975;-77
2022/08/24 09:42:20;;;;;;;13.32;5.28;;;;;;;27.59;65.75;101324.31;1655832;84;21078;-77
2022/08/24 09:45:23;;;;;;;12.10;5.47;;;;;;;27.47;65.61;101322.58;1638159;85;21075;-78
2022/08/24 09:48:25;;;;;;;14.25;4.97;;;;;;;27.30;65.52;101326.51;1656265;84;21134;-78
2022/08/24 09:51:21;;;;;;;15.03;5.60;;;;;;;27.19;65.38;101323.80;1656105;83;21073;-77
2022/08/24 09:54:24;;;;;;;;;;;;;;;27.07;65.30;101319.88;1658459;84;21087;-78
2022/08/24 09:57:27;;;;;;;13.03;5.10;;;;;;;27.04;65.23;101316.49;1659161;84;20256;-78
2022/08/24 10:00:30;;;;;;;18.27;5.15;;;;;;;27.01;65.15;101308.78;1658167;84;21166;-78
2022/08/24 10:03:55;;;;;;;10.53;4.92;;;;;;;26.97;65.04;101321.06;1696764;82;22043;-78
2022/08/24 10:06:54;;;;;;;9.50;4.22;;;;;;;26.87;64.96;101325.32;1654731;85;21135;-77
2022/08/24 10:09:57;;;;;;;11.25;4.40;;;;;;;26.73;64.96;101321.02;1655386;85;21065;-77
2022/08/24 10:12:53;;;;;;;12.05;4.97;;;;;;;26.73;65.05;101326.32;1659579;84;21126;-78
2022/08/24 10:16:02;;;;;;;13.75;5.20;;;;;;;26.78;64.98;101321.53;1631207;84;21083;-77
2022/08/24 10:19:17;;;;;;;16.52;5.03;;;;;;;26.83;64.95;101319.88;1662576;83;21146;-78
2022/08/24 10:22:28;;;;;;;19.75;5.75;;;;;;;26.85;64.84;101324.11;1659384;84;21162;-77
2022/08/24 10:25:50;;;;;;;14.13;5.30;;;;;;;26.76;64.69;101319.95;1627167;85;21103;-78
2022/08/24 10:29:13;;;;;;;12.53;4.95;;;;;;;26.65;64.69;101329.53;1664080;83;21102;-77
2022/08/24 10:32:40;;;;;;;15.10;4.95;;;;;;;26.52;64.69;101328.70;1653855;85;21007;-77
2022/08/24 10:36:02;;;;;;;10.90;5.40;;;;;;;26.46;64.73;101332.31;1657066;85;21681;-78
2022/08/24 10:39:42;;;;;;;19.50;5.95;;;;;;;26.38;64.69;101328.39;1612926;87;21085;-77
2022/08/24 10:46:20;;;;;;;10.03;5.00;;;;;;;26.38;64.71;101324.42;1656199;85;21058;-77
2022/08/24 10:49:19;;;;;;;11.55;4.97;;;;;;;26.40;64.54;101320.81;1656048;84;21122;-78
2022/08/24 10:52:41;;;;;;;8.68;4.87;;;;;;;26.41;64.56;101315.39;1650653;85;21796;-78
2022/08/24 10:55:33;;;;;;;14.43;4.87;;;;;;;26.43;64.59;101321.44;1664933;84;22363;-78
2022/08/24 10:59:02;;;;;;;23.02;6.10;;;;;;;26.51;64.55;101312.94;1658374;84;21154;-77
2022/08/24 11:02:05;;;;;;;10.53;4.70;;;;;;;26.58;64.49;101311.50;1655557;84;21143;-77
2022/08/24 11:05:04;;;;;;;11.10;4.58;;;;;;;26.64;64.44;101319.88;1653370;84;21749;-77
2022/08/24 11:08:06;;;;;;;10.00;5.00;;;;;;;26.65;64.37;101315.41;1662049;84;21642;-77
2022/08/24 11:11:11;;;;;;;10.43;5.12;;;;;;;26.64;64.34;101314.56;1658649;84;21133;-78
2022/08/24 11:14:08;;;;;;;14.75;5.50;;;;;;;26.64;64.30;101317.22;1649418;84;21253;-80
2022/08/24 11:16:53;;;;;;;12.65;5.45;;;;;;;26.57;64.24;101311.14;1702948;82;20966;-81
2022/08/24 11:19:38;;;;;;;10.82;5.08;;;;;;;26.54;64.32;101308.70;1685482;83;21087;-80
2022/08/24 11:22:31;;;;;;;18.40;5.20;;;;;;;26.55;64.36;101309.92;1692332;82;21049;-80
2022/08/24 11:25:31;;;;;;;11.70;5.08;;;;;;;26.56;64.23;101308.11;1697122;82;21430;-80
2022/08/24 11:28:33;;;;;;;7.78;5.20;;;;;;;26.53;64.20;101311.84;1707337;82;20962;-80
2022/08/24 11:31:40;;;;;;;9.88;5.47;;;;;;;26.54;64.25;101306.05;1690587;82;21008;-80
2022/08/24 11:34:36;;;;;;;18.52;5.47;;;;;;;26.55;64.23;101310.40;1700686;82;21041;-80
2022/08/24 11:37:33;;;;;;;;;;;;;;;26.59;64.23;101311.87;1668507;84;21019;-81
2022/08/24 11:40:26;;;;;;;7.85;4.95;;;;;;;26.58;64.01;101313.68;1663253;85;20216;-81
2022/08/24 11:43:35;;;;;;;9.48;4.78;;;;;;;26.54;64.19;101317.52;1658479;85;21720;-80
2022/08/24 11:46:52;;;;;;;10.25;4.45;;;;;;;26.49;64.18;101314.38;1646843;85;21050;-81
2022/08/24 11:49:48;;;;;;;12.15;4.58;;;;;;;26.44;64.17;101319.16;1639127;87;21075;-80
2022/08/24 11:52:47;;;;;;;10.58;5.17;;;;;;;26.38;64.21;101316.46;1615422;87;20966;-80
2022/08/24 11:55:49;;;;;;;14.63;5.42;;;;;;;26.39;64.21;101318.63;1696992;83;21342;-80
2022/08/24 11:58:55;;;;;;;14.38;5.00;;;;;;;26.38;64.16;101315.61;1703919;83;21060;-80
2022/08/24 12:01:57;;;;;;;12.05;4.83;;;;;;;26.38;64.14;101318.27;1697483;83;21070;-80
2022/08/24 12:05:03;;;;;;;15.53;4.92;;;;;;;26.40;64.18;101314.18;1701948;83;20989;-80
2022/08/24 12:08:00;;;;;;;16.07;6.12;;;;;;;26.46;64.20;101315.91;1656562;85;21067;-80
2022/08/24 12:11:07;;;;;;;14.95;5.35;;;;;;;26.50;64.15;101314.73;1654641;85;21087;-79
2022/08/24 12:14:01;;;;;;;11.85;5.03;;;;;;;26.53;64.16;101308.34;1659186;85;21036;-79
2022/08/24 12:16:57;;;;;;;11.40;5.05;;;;;;;26.58;64.14;101311.50;1704338;83;21001;-79
2022/08/24 12:19:57;;;;;;;12.18;5.75;;;;;;;26.65;64.10;101315.41;1661099;85;21087;-81
2022/08/24 12:22:42;;;;;;;10.18;5.55;;;;;;;26.68;64.02;101320.50;1676058;83;21111;-80
2022/08/24 12:28:39;;;;;;;12.70;5.45;;;;;;;26.77;64.09;101305.72;1658598;85;21118;-80
2022/08/24 12:31:49;;;;;;;11.88;5.58;;;;;;;26.86;64.05;101312.53;1668356;85;21035;-80
2022/08/24 12:34:51;;;;;;;8.68;5.65;;;;;;;26.93;63.98;101320.41;1654344;84;21079;-79
2022/08/24 12:37:48;;;;;;;11.40;5.67;;;;;;;26.94;63.93;101315.47;1657255;85;21031;-79
2022/08/24 12:40:39;;;;;;;;;;;;;;;27.00;63.99;101314.20;1660761;84;21090;-79
2022/08/24 12:43:50;;;;;;;15.60;6.03;;;;;;;27.08;63.79;101317.59;1613164;87;20303;-80
2022/08/24 12:46:36;;;;;;;15.93;5.35;;;;;;;27.11;63.92;101316.03;1654508;85;21049;-82
2022/08/24 12:49:36;;;;;;;12.55;5.67;;;;;;;27.18;63.86;101315.95;1663983;85;20944;-80
2022/08/24 12:52:32;;;;;;;15.80;6.03;;;;;;;27.23;63.83;101323.09;1662016;85;21027;-80
2022/08/24 12:55:53;;;;;;;;;;;;;;;27.25;63.77;101322.50;1660745;85;21071;-80
2022/08/24 12:59:00;;;;;;;14.75;5.85;;;;;;;27.25;63.74;101316.70;1659067;84;20210;-80
2022/08/24 13:02:12;;;;;;;15.85;6.05;;;;;;;27.26;63.80;101327.70;1661326;85;21383;-80
2022/08/24 13:05:02;;;;;;;12.82;5.85;;;;;;;27.24;63.78;101326.11;1656420;84;21071;-80
2022/08/24 13:07:51;;;;;;;14.60;6.33;;;;;;;27.19;63.74;101325.13;1659272;85;21142;-80
2022/08/24 13:10:42;;;;;;;14.78;6.60;;;;;;;27.17;63.76;101319.56;1650310;85;21015;-80
2022/08/24 13:13:48;;;;;;;13.28;7.00;;;;;;;27.15;63.75;101322.34;1652929;85;21032;-80
2022/08/24 13:17:00;;;;;;;13.95;6.03;;;;;;;27.12;63.70;101321.72;1641617;85;21032;-79
2022/08/24 13:19:48;;;;;;;11.83;6.53;;;;;;;27.09;63.67;101321.94;1655331;85;21073;-80
2022/08/24 13:22:41;;;;;;;11.12;7.05;;;;;;;27.02;63.60;101324.23;1636725;86;21717;-80
2022/08/24 13:26:05;;;;;;;15.32;6.17;;;;;;;26.97;63.64;101319.74;1698454;83;21113;-80
2022/08/24 13:28:54;;;;;;;10.90;7.05;;;;;;;26.91;63.62;101320.16;1585591;87;21204;-80
2022/08/24 13:31:44;;;;;;;21.27;7.22;;;;;;;26.84;63.63;101320.23;1629109;87;21319;-80